createdAt,value
2022-10-22T00:00:08.811Z,17.80
2022-10-22T00:02:35.781Z,17.80
2022-10-22T00:05:02.646Z,17.70
2022-10-22T00:07:29.431Z,17.70
2022-10-22T00:09:56.189Z,17.80
2022-10-22T00:12:22.954Z,17.70
2022-10-22T00:14:49.740Z,17.60
2022-10-22T00:17:17.288Z,17.60
2022-10-22T00:19:44.661Z,17.60
2022-10-22T00:22:12.382Z,17.60
2022-10-22T00:24:40.006Z,17.70
2022-10-22T00:27:14.389Z,17.60
2022-10-22T00:29:41.233Z,17.60
2022-10-22T00:32:07.946Z,17.60
2022-10-22T00:34:34.757Z,17.60
2022-10-22T00:37:01.554Z,17.60
2022-10-22T00:39:29.371Z,17.60
2022-10-22T00:41:57.714Z,17.60
2022-10-22T00:45:11.159Z,17.60
2022-10-22T00:47:49.103Z,17.60
2022-10-22T00:50:34.626Z,17.60
2022-10-22T00:53:06.372Z,17.60
2022-10-22T00:55:33.750Z,17.60
2022-10-22T00:58:03.671Z,17.70
2022-10-22T01:00:31.260Z,17.70
2022-10-22T01:02:58.315Z,17.60
2022-10-22T01:05:31.218Z,17.70
2022-10-22T01:07:58.238Z,17.60
2022-10-22T01:10:51.773Z,17.60
2022-10-22T01:13:36.810Z,17.60
2022-10-22T01:16:14.601Z,17.60
2022-10-22T01:19:11.916Z,17.60
2022-10-22T01:22:12.175Z,17.50
2022-10-22T01:25:15.037Z,17.60
2022-10-22T01:28:19.030Z,17.60
2022-10-22T01:30:50.234Z,17.60
2022-10-22T01:33:21.291Z,17.60
2022-10-22T01:35:48.630Z,17.60
2022-10-22T01:38:22.307Z,17.60
2022-10-22T01:40:51.076Z,17.50
2022-10-22T01:43:17.829Z,17.50
2022-10-22T01:45:54.058Z,17.60
2022-10-22T01:48:49.692Z,17.60
2022-10-22T01:51:59.579Z,17.60
2022-10-22T01:54:46.892Z,17.60
2022-10-22T01:58:19.044Z,17.60
2022-10-22T02:01:31.494Z,17.50
2022-10-22T02:04:46.311Z,17.50
2022-10-22T02:07:19.052Z,17.50
2022-10-22T02:09:47.938Z,17.40
2022-10-22T02:12:17.821Z,17.50
2022-10-22T02:14:46.688Z,17.50
2022-10-22T02:17:19.950Z,17.50
2022-10-22T02:20:16.769Z,17.50
2022-10-22T02:22:43.983Z,17.50
2022-10-22T02:25:11.959Z,17.40
2022-10-22T02:27:49.157Z,17.40
2022-10-22T02:30:21.164Z,17.40
2022-10-22T02:33:11.896Z,17.40
2022-10-22T02:35:41.696Z,17.40
2022-10-22T02:38:10.371Z,17.40
2022-10-22T02:40:37.865Z,17.40
2022-10-22T02:43:06.146Z,17.40
2022-10-22T02:45:34.634Z,17.20
2022-10-22T02:48:02.949Z,17.40
2022-10-22T02:50:29.777Z,17.40
2022-10-22T02:52:56.702Z,17.30
2022-10-22T02:55:23.510Z,17.30
2022-10-22T02:57:50.214Z,17.30
2022-10-22T03:00:17.249Z,17.30
2022-10-22T03:02:45.005Z,17.30
2022-10-22T03:05:11.701Z,17.30
2022-10-22T03:07:38.595Z,17.30
2022-10-22T03:10:06.356Z,16.90
2022-10-22T03:12:33.062Z,17.20
2022-10-22T03:14:59.981Z,17.20
2022-10-22T03:17:26.787Z,17.20
2022-10-22T03:19:53.535Z,17.20
2022-10-22T03:22:26.770Z,17.20
2022-10-22T03:25:00.115Z,17.20
2022-10-22T03:27:29.465Z,17.30
2022-10-22T03:29:57.973Z,17.20
2022-10-22T03:32:24.743Z,17.20
2022-10-22T03:34:51.563Z,17.20
2022-10-22T03:37:18.911Z,17.20
2022-10-22T03:39:46.392Z,17.20
2022-10-22T03:42:13.586Z,17.20
2022-10-22T03:44:40.837Z,17.20
2022-10-22T03:47:07.789Z,17.20
2022-10-22T03:49:34.543Z,17.20
2022-10-22T03:52:11.090Z,17.20
2022-10-22T03:57:10.768Z,17.20
2022-10-22T03:59:45.891Z,17.20
2022-10-22T04:02:14.021Z,17.10
2022-10-22T04:04:40.847Z,17.20
2022-10-22T04:07:09.408Z,17.20
2022-10-22T04:09:36.933Z,17.20
2022-10-22T04:12:06.493Z,17.20
2022-10-22T04:14:33.961Z,17.20
2022-10-22T04:17:00.794Z,17.20
2022-10-22T04:19:27.617Z,17.20
2022-10-22T04:21:54.387Z,17.20
2022-10-22T04:24:21.674Z,17.10
2022-10-22T04:26:48.429Z,17.20
2022-10-22T04:29:16.356Z,17.20
2022-10-22T04:31:43.616Z,17.20
2022-10-22T04:34:10.311Z,17.10
2022-10-22T04:36:37.299Z,17.20
2022-10-22T04:39:04.518Z,17.20
2022-10-22T04:41:39.564Z,17.20
2022-10-22T04:44:10.935Z,17.20
2022-10-22T04:46:42.746Z,17.20
2022-10-22T04:49:09.570Z,17.20
2022-10-22T04:51:36.341Z,17.10
2022-10-22T04:54:03.155Z,17.20
2022-10-22T04:56:31.897Z,17.20
2022-10-22T04:59:03.665Z,17.10
2022-10-22T05:01:42.714Z,17.10
2022-10-22T05:04:17.155Z,17.20
2022-10-22T05:06:44.630Z,17.10
2022-10-22T05:09:19.902Z,17.00
2022-10-22T05:11:51.813Z,17.10
2022-10-22T05:14:23.012Z,17.10
2022-10-22T05:16:51.109Z,17.10
2022-10-22T05:19:30.951Z,17.10
2022-10-22T05:22:03.680Z,17.10
2022-10-22T05:24:34.546Z,17.00
2022-10-22T05:27:01.281Z,17.00
2022-10-22T05:29:28.187Z,17.10
2022-10-22T05:31:55.399Z,17.00
2022-10-22T05:34:22.173Z,16.90
2022-10-22T05:36:48.916Z,17.00
2022-10-22T05:39:15.965Z,16.90
2022-10-22T05:41:42.693Z,16.90
2022-10-22T05:44:12.531Z,16.90
2022-10-22T05:46:39.790Z,16.90
2022-10-22T05:49:07.590Z,16.90
2022-10-22T05:51:36.987Z,16.90
2022-10-22T05:54:07.600Z,16.90
2022-10-22T05:56:36.742Z,16.80
2022-10-22T05:59:04.135Z,17.30
2022-10-22T06:01:33.601Z,16.80
2022-10-22T06:04:04.259Z,16.80
2022-10-22T06:06:38.217Z,16.80
2022-10-22T06:09:27.618Z,16.80
2022-10-22T06:11:57.318Z,16.80
2022-10-22T06:14:25.125Z,16.90
2022-10-22T06:16:52.875Z,16.80
2022-10-22T06:19:23.546Z,16.80
2022-10-22T06:21:50.340Z,16.80
2022-10-22T06:24:17.125Z,16.70
2022-10-22T06:26:44.276Z,16.80
2022-10-22T06:29:11.483Z,16.80
2022-10-22T06:31:38.293Z,16.90
2022-10-22T06:34:08.493Z,16.80
2022-10-22T06:36:36.509Z,16.80
2022-10-22T06:39:04.939Z,16.80
2022-10-22T06:41:31.732Z,16.80
2022-10-22T06:43:58.615Z,16.70
2022-10-22T06:46:26.788Z,16.80
2022-10-22T06:49:01.075Z,16.90
2022-10-22T06:51:28.686Z,16.90
2022-10-22T06:53:57.490Z,16.90
2022-10-22T06:56:27.282Z,16.90
2022-10-22T06:58:56.658Z,16.90
2022-10-22T07:01:29.668Z,17.00
2022-10-22T07:03:57.304Z,17.10
2022-10-22T07:06:26.306Z,17.00
2022-10-22T07:08:55.918Z,17.10
2022-10-22T07:11:26.802Z,17.10
2022-10-22T07:14:00.041Z,17.10
2022-10-22T07:16:31.094Z,17.20
2022-10-22T07:19:02.974Z,17.10
2022-10-22T07:21:30.912Z,17.20
2022-10-22T07:23:59.095Z,17.20
2022-10-22T07:26:30.880Z,17.30
2022-10-22T07:28:59.032Z,17.30
2022-10-22T07:31:26.424Z,17.30
2022-10-22T07:33:53.214Z,17.30
2022-10-22T07:36:20.058Z,17.30
2022-10-22T07:38:53.438Z,17.40
2022-10-22T07:41:20.328Z,17.30
2022-10-22T07:43:47.053Z,17.40
2022-10-22T07:46:14.046Z,17.40
2022-10-22T07:48:40.925Z,17.50
2022-10-22T07:51:08.284Z,17.60
2022-10-22T07:53:35.259Z,17.60
2022-10-22T07:56:02.348Z,17.70
2022-10-22T07:58:29.227Z,17.70
2022-10-22T08:00:58.809Z,17.80
2022-10-22T08:03:25.541Z,17.80
2022-10-22T08:05:52.839Z,17.90
2022-10-22T08:08:20.704Z,17.90
2022-10-22T08:10:50.673Z,17.90
2022-10-22T08:13:17.467Z,18.00
2022-10-22T08:18:12.589Z,18.10
2022-10-22T08:20:39.840Z,18.10
2022-10-22T08:23:06.635Z,18.10
2022-10-22T08:25:33.763Z,18.10
2022-10-22T08:28:00.504Z,18.20
2022-10-22T08:30:29.686Z,18.20
2022-10-22T08:32:56.946Z,18.20
2022-10-22T08:35:23.744Z,18.30
2022-10-22T08:37:50.943Z,18.30
2022-10-22T08:40:38.226Z,18.30
2022-10-22T08:43:56.673Z,18.40
2022-10-22T08:46:34.283Z,18.40
2022-10-22T08:49:05.564Z,18.40
2022-10-22T08:51:36.912Z,18.40
2022-10-22T08:54:27.570Z,18.40
2022-10-22T08:57:08.943Z,18.50
2022-10-22T08:59:55.891Z,18.50
2022-10-22T09:02:59.867Z,18.50
2022-10-22T09:06:02.676Z,18.60
2022-10-22T09:08:30.036Z,18.60
2022-10-22T09:11:15.871Z,18.70
2022-10-22T09:13:46.686Z,18.70
2022-10-22T09:16:46.139Z,18.70
2022-10-22T09:19:26.775Z,18.80
2022-10-22T09:22:36.917Z,18.80
2022-10-22T09:25:32.601Z,18.90
2022-10-22T09:27:59.454Z,18.90
2022-10-22T09:30:35.181Z,18.80
2022-10-22T09:33:06.284Z,19.00
2022-10-22T09:35:58.065Z,19.00
2022-10-22T09:38:38.931Z,19.10
2022-10-22T09:41:06.504Z,19.20
2022-10-22T09:43:36.090Z,19.20
2022-10-22T09:46:08.262Z,19.30
2022-10-22T09:48:42.686Z,19.40
2022-10-22T09:51:37.401Z,19.30
2022-10-22T09:54:33.453Z,19.50
2022-10-22T09:57:18.973Z,19.60
2022-10-22T09:59:54.000Z,19.60
2022-10-22T10:02:37.975Z,19.70
2022-10-22T10:05:06.464Z,19.80
2022-10-22T10:07:35.547Z,19.90
2022-10-22T10:10:02.852Z,20.00
2022-10-22T10:12:55.543Z,20.00
2022-10-22T10:15:43.126Z,20.10
2022-10-22T10:18:59.977Z,20.10
2022-10-22T10:21:58.316Z,20.20
2022-10-22T10:25:01.412Z,20.20
2022-10-22T10:27:41.786Z,20.20
2022-10-22T10:30:20.667Z,20.20
2022-10-22T10:33:33.135Z,20.20
2022-10-22T10:36:06.462Z,20.20
2022-10-22T10:38:51.815Z,20.30
2022-10-22T10:42:09.836Z,20.30
2022-10-22T10:45:02.506Z,20.30
2022-10-22T10:48:19.570Z,20.30
2022-10-22T10:51:08.623Z,20.40
2022-10-22T10:54:02.077Z,20.40
2022-10-22T10:56:53.035Z,20.40
2022-10-22T10:59:54.801Z,20.40
2022-10-22T11:03:05.898Z,20.40
2022-10-22T11:05:58.893Z,20.40
2022-10-22T11:08:43.542Z,20.40
2022-10-22T11:11:55.338Z,20.40
2022-10-22T11:15:00.309Z,20.40
2022-10-22T11:17:41.107Z,20.60
2022-10-22T11:20:28.365Z,20.70
2022-10-22T11:23:20.521Z,20.80
2022-10-22T11:25:50.454Z,20.90
2022-10-22T11:28:37.357Z,21.10
2022-10-22T11:31:25.875Z,21.20
2022-10-22T11:34:32.123Z,21.30
2022-10-22T11:36:57.693Z,21.30
2022-10-22T11:39:59.703Z,21.40
2022-10-22T11:42:40.888Z,21.50
2022-10-22T11:45:34.693Z,21.50
2022-10-22T11:48:10.666Z,21.50
2022-10-22T11:50:50.812Z,21.40
2022-10-22T11:53:32.654Z,21.50
2022-10-22T11:56:09.971Z,21.40
2022-10-22T11:58:45.019Z,21.50
2022-10-22T12:01:11.746Z,21.40
2022-10-22T12:03:44.501Z,21.40
2022-10-22T12:06:12.116Z,21.40
2022-10-22T12:08:57.317Z,21.40
2022-10-22T12:11:41.564Z,21.30
2022-10-22T12:14:33.883Z,21.30
2022-10-22T12:17:12.315Z,21.10
2022-10-22T12:19:43.902Z,21.20
2022-10-22T12:22:30.733Z,21.20
2022-10-22T12:25:02.178Z,21.10
2022-10-22T12:27:40.981Z,21.10
2022-10-22T12:30:25.005Z,21.10
2022-10-22T12:32:58.311Z,21.10
2022-10-22T12:35:33.042Z,21.00
2022-10-22T12:38:15.118Z,21.00
2022-10-22T12:40:45.902Z,20.90
2022-10-22T12:43:28.958Z,21.00
2022-10-22T12:45:57.744Z,21.00
2022-10-22T12:48:33.954Z,20.90
2022-10-22T12:51:04.623Z,21.00
2022-10-22T12:53:37.653Z,21.00
2022-10-22T12:56:10.670Z,21.00
2022-10-22T12:58:51.582Z,21.00
2022-10-22T13:01:19.250Z,21.00
2022-10-22T13:04:03.364Z,21.00
2022-10-22T13:06:30.101Z,21.10
2022-10-22T13:09:00.375Z,21.10
2022-10-22T13:11:53.270Z,21.10
2022-10-22T13:14:30.730Z,21.20
2022-10-22T13:17:11.853Z,21.10
2022-10-22T13:19:52.539Z,21.10
2022-10-22T13:22:37.870Z,21.20
2022-10-22T13:25:17.456Z,21.20
2022-10-22T13:28:07.915Z,21.20
2022-10-22T13:30:37.573Z,21.20
2022-10-22T13:33:26.935Z,21.20
2022-10-22T13:35:55.844Z,21.20
2022-10-22T13:38:26.158Z,21.20
2022-10-22T13:40:53.232Z,21.30
2022-10-22T13:43:20.669Z,21.30
2022-10-22T13:45:53.255Z,21.30
2022-10-22T13:48:23.825Z,21.30
2022-10-22T13:50:51.890Z,21.30
2022-10-22T13:53:24.621Z,21.30
2022-10-22T13:55:51.570Z,21.30
2022-10-22T13:58:24.655Z,21.30
2022-10-22T14:00:56.929Z,21.30
2022-10-22T14:03:32.478Z,21.30
2022-10-22T14:05:59.371Z,21.30
2022-10-22T14:08:28.484Z,21.30
2022-10-22T14:10:56.005Z,21.30
2022-10-22T14:13:22.879Z,21.30
2022-10-22T14:15:52.094Z,21.40
2022-10-22T14:18:31.695Z,21.40
2022-10-22T14:21:07.559Z,21.40
2022-10-22T14:23:36.482Z,21.40
2022-10-22T14:26:04.329Z,21.40
2022-10-22T14:28:34.151Z,21.40
2022-10-22T14:31:04.651Z,21.40
2022-10-22T14:33:33.663Z,21.40
2022-10-22T14:36:01.594Z,21.40
2022-10-22T14:38:28.516Z,21.30
2022-10-22T14:40:55.458Z,21.40
2022-10-22T14:43:29.011Z,21.30
2022-10-22T14:45:55.995Z,21.30
2022-10-22T14:48:23.247Z,21.40
2022-10-22T14:50:50.464Z,21.40
2022-10-22T14:53:17.820Z,21.30
2022-10-22T14:55:48.972Z,21.40
2022-10-22T14:58:16.131Z,21.40
2022-10-22T15:00:43.848Z,21.30
2022-10-22T15:03:11.525Z,21.30
2022-10-22T15:05:44.549Z,21.30
2022-10-22T15:08:14.173Z,21.20
2022-10-22T15:10:41.903Z,21.30
2022-10-22T15:13:09.355Z,21.20
2022-10-22T15:15:39.628Z,21.20
2022-10-22T15:18:06.994Z,21.20
2022-10-22T15:20:33.774Z,21.20
2022-10-22T15:23:00.502Z,21.00
2022-10-22T15:25:27.426Z,21.10
2022-10-22T15:27:57.591Z,21.10
2022-10-22T15:30:28.727Z,21.10
2022-10-22T15:32:55.551Z,21.10
2022-10-22T15:35:22.291Z,21.00
2022-10-22T15:37:51.628Z,21.00
2022-10-22T15:40:18.420Z,20.90
2022-10-22T15:42:46.576Z,20.90
2022-10-22T15:45:13.331Z,20.80
2022-10-22T15:47:40.311Z,20.80
2022-10-22T15:50:08.119Z,20.80
2022-10-22T15:52:34.820Z,20.70
2022-10-22T15:55:04.199Z,20.70
2022-10-22T15:57:31.164Z,20.60
2022-10-22T15:59:57.918Z,20.60
2022-10-22T16:02:24.726Z,20.50
2022-10-22T16:04:51.467Z,20.50
2022-10-22T16:07:21.086Z,20.40
2022-10-22T16:09:50.798Z,20.40
2022-10-22T16:12:17.519Z,20.30
2022-10-22T16:14:44.276Z,20.30
2022-10-22T16:17:11.033Z,20.30
2022-10-22T16:19:37.829Z,20.20
2022-10-22T16:22:04.539Z,20.10
2022-10-22T16:24:31.302Z,20.10
2022-10-22T16:26:58.395Z,19.90
2022-10-22T16:29:25.143Z,20.00
2022-10-22T16:31:51.898Z,19.90
2022-10-22T16:34:18.594Z,19.90
2022-10-22T16:36:45.358Z,19.80
2022-10-22T16:39:12.991Z,19.70
2022-10-22T16:41:39.820Z,19.70
2022-10-22T16:44:08.661Z,19.60
2022-10-22T16:46:38.497Z,19.60
2022-10-22T16:49:07.195Z,19.50
2022-10-22T16:51:35.144Z,19.50
2022-10-22T16:54:03.703Z,19.40
2022-10-22T16:56:33.645Z,19.40
2022-10-22T16:59:00.444Z,19.30
2022-10-22T17:01:29.203Z,19.30
2022-10-22T17:03:59.574Z,19.20
2022-10-22T17:06:26.695Z,19.20
2022-10-22T17:08:53.861Z,19.20
2022-10-22T17:11:23.990Z,19.00
2022-10-22T17:13:53.926Z,19.10
2022-10-22T17:16:24.138Z,19.00
2022-10-22T17:18:53.355Z,19.00
2022-10-22T17:21:21.212Z,18.90
2022-10-22T17:23:48.969Z,18.90
2022-10-22T17:26:22.783Z,19.00
2022-10-22T17:28:50.446Z,18.90
2022-10-22T17:31:38.240Z,18.70
2022-10-22T17:34:09.947Z,18.80
2022-10-22T17:36:37.366Z,18.80
2022-10-22T17:39:07.734Z,18.80
2022-10-22T17:41:36.624Z,18.90
2022-10-22T17:44:09.467Z,18.80
2022-10-22T17:46:37.428Z,18.80
2022-10-22T17:49:08.184Z,18.80
2022-10-22T17:51:34.972Z,18.80
2022-10-22T17:54:03.512Z,18.80
2022-10-22T17:56:33.025Z,18.80
2022-10-22T17:58:59.898Z,18.70
2022-10-22T18:01:34.403Z,18.80
2022-10-22T18:04:08.000Z,18.70
2022-10-22T18:06:35.755Z,18.70
2022-10-22T18:09:08.371Z,18.70
2022-10-22T18:11:37.141Z,18.70
2022-10-22T18:14:04.971Z,18.70
2022-10-22T18:16:31.840Z,18.70
2022-10-22T18:18:58.950Z,18.60
2022-10-22T18:21:28.548Z,18.60
2022-10-22T18:23:57.622Z,18.60
2022-10-22T18:26:26.903Z,18.60
2022-10-22T18:28:54.873Z,18.60
2022-10-22T18:31:25.232Z,18.60
2022-10-22T18:36:26.798Z,18.60
2022-10-22T18:38:57.786Z,18.70
2022-10-22T18:41:25.809Z,18.70
2022-10-22T18:43:55.720Z,18.70
2022-10-22T18:46:24.040Z,18.80
2022-10-22T18:48:54.098Z,18.70
2022-10-22T18:51:21.701Z,18.80
2022-10-22T18:54:04.551Z,19.20
2022-10-22T18:56:40.704Z,18.70
2022-10-22T18:59:14.095Z,18.80
2022-10-22T19:01:40.817Z,18.80
2022-10-22T19:04:07.534Z,18.80
2022-10-22T19:06:37.053Z,18.80
2022-10-22T19:09:04.926Z,18.90
2022-10-22T19:11:32.644Z,18.80
2022-10-22T19:13:59.430Z,18.90
2022-10-22T19:16:27.094Z,18.90
2022-10-22T19:19:05.067Z,18.80
2022-10-22T19:21:32.875Z,18.70
2022-10-22T19:24:01.958Z,18.70
2022-10-22T19:26:30.522Z,18.80
2022-10-22T19:28:59.521Z,18.60
2022-10-22T19:31:29.768Z,18.60
2022-10-22T19:33:57.732Z,18.60
2022-10-22T19:36:27.617Z,18.60
2022-10-22T19:38:55.293Z,18.50
2022-10-22T19:41:25.147Z,18.50
2022-10-22T19:43:54.610Z,18.40
2022-10-22T19:46:23.688Z,18.40
2022-10-22T19:48:52.240Z,18.40
2022-10-22T19:51:23.018Z,18.40
2022-10-22T19:53:50.671Z,18.30
2022-10-22T19:56:20.733Z,18.20
2022-10-22T19:58:47.802Z,18.30
2022-10-22T20:01:17.165Z,18.30
2022-10-22T20:03:45.249Z,18.20
2022-10-22T20:06:15.114Z,18.20
2022-10-22T20:08:42.011Z,18.20
2022-10-22T20:11:36.970Z,18.20
2022-10-22T20:14:03.743Z,18.20
2022-10-22T20:16:31.047Z,17.80
2022-10-22T20:19:04.061Z,18.20
2022-10-22T20:21:31.869Z,18.20
2022-10-22T20:23:59.412Z,18.20
2022-10-22T20:26:28.278Z,18.20
2022-10-22T20:28:56.488Z,18.10
2022-10-22T20:31:26.567Z,18.00
2022-10-22T20:33:59.084Z,18.10
2022-10-22T20:36:28.059Z,18.10
2022-10-22T20:39:01.769Z,18.10
2022-10-22T20:41:29.310Z,18.10
2022-10-22T20:43:56.070Z,18.20
2022-10-22T20:46:30.822Z,18.20
2022-10-22T20:49:09.014Z,18.20
2022-10-22T20:51:38.453Z,18.20
2022-10-22T20:54:07.430Z,18.20
2022-10-22T20:56:37.352Z,18.30
2022-10-22T20:59:05.495Z,18.30
2022-10-22T21:01:44.709Z,18.30
2022-10-22T21:04:11.656Z,18.30
2022-10-22T21:06:40.185Z,18.30
2022-10-22T21:09:09.478Z,18.20
2022-10-22T21:11:37.780Z,18.40
2022-10-22T21:14:07.104Z,18.40
2022-10-22T21:16:33.931Z,18.40
2022-10-22T21:19:00.992Z,18.40
2022-10-22T21:21:27.863Z,18.40
2022-10-22T21:23:54.842Z,18.40
2022-10-22T21:26:21.655Z,18.40
2022-10-22T21:28:48.617Z,18.50
2022-10-22T21:31:21.821Z,18.50
2022-10-22T21:33:50.395Z,18.50
2022-10-22T21:36:22.408Z,18.60
2022-10-22T21:38:52.029Z,18.50
2022-10-22T21:41:21.259Z,18.50
2022-10-22T21:43:48.784Z,18.60
2022-10-22T21:46:20.230Z,18.60
2022-10-22T21:48:51.905Z,18.60
2022-10-22T21:51:20.390Z,18.60
2022-10-22T21:53:47.383Z,18.60
2022-10-22T21:56:25.186Z,18.60
2022-10-22T21:58:52.292Z,18.60
2022-10-22T22:01:20.237Z,18.60
2022-10-22T22:03:49.893Z,18.60
2022-10-22T22:06:21.418Z,18.70
2022-10-22T22:08:51.212Z,18.70
2022-10-22T22:11:22.651Z,18.60
2022-10-22T22:13:50.539Z,18.60
2022-10-22T22:16:31.398Z,18.60
2022-10-22T22:19:06.193Z,18.60
2022-10-22T22:21:33.994Z,18.60
2022-10-22T22:24:00.861Z,18.50
2022-10-22T22:26:30.083Z,18.50
2022-10-22T22:28:59.760Z,18.50
2022-10-22T22:31:31.995Z,18.40
2022-10-22T22:34:15.059Z,18.40
2022-10-22T22:36:45.777Z,18.30
2022-10-22T22:39:22.557Z,18.30
2022-10-22T22:41:49.845Z,18.30
2022-10-22T22:44:16.996Z,18.20
2022-10-22T22:46:44.291Z,18.20
2022-10-22T22:49:13.085Z,18.10
2022-10-22T22:51:39.938Z,18.20
2022-10-22T22:54:06.754Z,18.10
2022-10-22T22:56:36.917Z,18.00
2022-10-22T22:59:05.763Z,18.00
2022-10-22T23:01:39.344Z,18.00
2022-10-22T23:04:19.067Z,17.90
2022-10-22T23:06:46.293Z,17.90
2022-10-22T23:09:15.580Z,17.80
2022-10-22T23:11:44.316Z,18.00
2022-10-22T23:14:14.784Z,17.70
2022-10-22T23:16:46.207Z,17.70
2022-10-22T23:19:16.924Z,17.70
2022-10-22T23:21:50.943Z,17.60
2022-10-22T23:24:24.436Z,17.60
2022-10-22T23:26:53.255Z,17.60
2022-10-22T23:29:27.560Z,17.50
2022-10-22T23:31:55.491Z,17.50
2022-10-22T23:34:25.362Z,17.50
2022-10-22T23:36:53.090Z,17.50
2022-10-22T23:39:24.227Z,17.40
2022-10-22T23:41:53.129Z,17.40
2022-10-22T23:44:21.509Z,17.40
2022-10-22T23:46:48.589Z,17.40
2022-10-22T23:49:16.731Z,17.20
2022-10-22T23:51:43.527Z,17.30
2022-10-22T23:54:18.334Z,17.30
2022-10-22T23:56:45.295Z,17.10
